sensor_id;sensor_type;location;lat;lon;timestamp;P1;durP1;ratioP1;P2;durP2;ratioP2
72674;SDS011;60752;53.962;9.614;2023-04-01T00:27:12;12.10;;;5.53;;
72674;SDS011;60752;53.962;9.614;2023-04-01T00:57:15;10.50;;;4.47;;
72674;SDS011;60752;53.962;9.614;2023-04-01T01:27:21;10.10;;;4.83;;
72674;SDS011;60752;53.962;9.614;2023-04-01T01:57:24;11.75;;;5.05;;
72674;SDS011;60752;53.962;9.614;2023-04-01T02:27:28;10.80;;;5.57;;
72674;SDS011;60752;53.962;9.614;2023-04-01T02:57:31;5.33;;;2.10;;
72674;SDS011;60752;53.962;9.614;2023-04-01T03:27:33;4.13;;;1.83;;
72674;SDS011;60752;53.962;9.614;2023-04-01T03:57:35;4.13;;;1.60;;
72674;SDS011;60752;53.962;9.614;2023-04-01T04:27:37;3.92;;;1.58;;
72674;SDS011;60752;53.962;9.614;2023-04-01T04:57:38;2.80;;;1.03;;
72674;SDS011;60752;53.962;9.614;2023-04-01T05:27:40;2.93;;;1.10;;
72674;SDS011;60752;53.962;9.614;2023-04-01T05:57:42;4.47;;;1.13;;
72674;SDS011;60752;53.962;9.614;2023-04-01T06:27:52;5.20;;;1.40;;
72674;SDS011;60752;53.962;9.614;2023-04-01T06:58:02;3.53;;;1.00;;
72674;SDS011;60752;53.962;9.614;2023-04-01T07:28:11;1.53;;;0.60;;
72674;SDS011;60752;53.962;9.614;2023-04-01T07:58:16;1.80;;;0.70;;
72674;SDS011;60752;53.962;9.614;2023-04-01T08:28:26;1.87;;;0.73;;
72674;SDS011;60752;53.962;9.614;2023-04-01T09:29:16;1.95;;;0.70;;
72674;SDS011;60752;53.962;9.614;2023-04-01T09:59:33;3.63;;;1.00;;
72674;SDS011;60752;53.962;9.614;2023-04-01T10:30:05;4.63;;;1.20;;
72674;SDS011;60752;53.962;9.614;2023-04-01T11:00:34;7.37;;;2.00;;
72674;SDS011;60752;53.962;9.614;2023-04-01T11:30:58;9.97;;;3.03;;
72674;SDS011;60752;53.962;9.614;2023-04-01T12:01:10;8.70;;;2.63;;
72674;SDS011;60752;53.962;9.614;2023-04-01T12:31:20;6.73;;;2.63;;
72674;SDS011;60752;53.962;9.614;2023-04-01T13:32:04;9.47;;;2.90;;
72674;SDS011;60752;53.962;9.614;2023-04-01T14:02:24;6.93;;;2.40;;
72674;SDS011;60752;53.962;9.614;2023-04-01T14:32:39;6.85;;;2.10;;
72674;SDS011;60752;53.962;9.614;2023-04-01T15:02:53;8.63;;;3.27;;
72674;SDS011;60752;53.962;9.614;2023-04-01T15:33:13;7.23;;;2.77;;
72674;SDS011;60752;53.962;9.614;2023-04-01T16:03:35;9.73;;;2.43;;
72674;SDS011;60752;53.962;9.614;2023-04-01T16:33:45;5.03;;;1.97;;
72674;SDS011;60752;53.962;9.614;2023-04-01T17:03:52;10.77;;;2.08;;
72674;SDS011;60752;53.962;9.614;2023-04-01T17:34:01;7.27;;;2.03;;
72674;SDS011;60752;53.962;9.614;2023-04-01T18:04:22;3.47;;;1.40;;
72674;SDS011;60752;53.962;9.614;2023-04-01T18:34:38;10.20;;;1.73;;
72674;SDS011;60752;53.962;9.614;2023-04-01T19:04:45;4.47;;;1.60;;
72674;SDS011;60752;53.962;9.614;2023-04-01T19:34:56;3.65;;;1.42;;
72674;SDS011;60752;53.962;9.614;2023-04-01T20:05:11;4.53;;;1.13;;
72674;SDS011;60752;53.962;9.614;2023-04-01T20:35:28;5.90;;;1.60;;
72674;SDS011;60752;53.962;9.614;2023-04-01T21:05:43;7.03;;;1.20;;
72674;SDS011;60752;53.962;9.614;2023-04-01T21:35:55;3.70;;;1.00;;
72674;SDS011;60752;53.962;9.614;2023-04-01T22:06:07;2.92;;;0.90;;
72674;SDS011;60752;53.962;9.614;2023-04-01T22:36:16;4.77;;;0.90;;
72674;SDS011;60752;53.962;9.614;2023-04-01T23:06:26;3.60;;;1.30;;
72674;SDS011;60752;53.962;9.614;2023-04-01T23:36:31;1.97;;;0.73;;
